createdAt,value
2023-04-21T00:02:28.941Z,15.30
2023-04-21T00:05:04.140Z,15.70
2023-04-21T00:07:39.381Z,17.40
2023-04-21T00:10:14.678Z,17.20
2023-04-21T00:12:48.176Z,14.00
2023-04-21T00:15:22.201Z,12.60
2023-04-21T00:18:05.387Z,15.20
2023-04-21T00:20:39.655Z,13.40
2023-04-21T00:23:13.625Z,12.50
2023-04-21T00:25:47.940Z,14.10
2023-04-21T00:28:22.354Z,14.30
2023-04-21T00:30:57.019Z,13.20
2023-04-21T00:33:31.198Z,13.60
2023-04-21T00:36:04.719Z,12.30
2023-04-21T00:38:41.370Z,15.20
2023-04-21T00:41:19.086Z,13.40
2023-04-21T00:44:06.865Z,13.10
2023-04-21T00:46:41.481Z,14.90
2023-04-21T00:49:15.941Z,15.50
2023-04-21T00:51:49.627Z,13.10
2023-04-21T00:54:25.894Z,13.00
2023-04-21T00:57:02.746Z,17.10
2023-04-21T00:59:36.579Z,11.90
2023-04-21T01:02:10.007Z,13.50
2023-04-21T01:04:43.899Z,15.20
2023-04-21T01:07:17.754Z,15.50
2023-04-21T01:09:51.667Z,14.50
2023-04-21T01:12:24.912Z,16.20
2023-04-21T01:14:58.745Z,18.00
2023-04-21T01:17:32.788Z,13.10
2023-04-21T01:20:12.126Z,19.60
2023-04-21T01:22:47.249Z,15.30
2023-04-21T01:25:23.151Z,13.70
2023-04-21T01:27:57.126Z,13.50
2023-04-21T01:30:30.773Z,16.30
2023-04-21T01:33:05.915Z,20.70
2023-04-21T01:35:39.516Z,21.80
2023-04-21T01:38:13.943Z,15.90
2023-04-21T01:40:49.417Z,12.90
2023-04-21T01:43:26.418Z,16.80
2023-04-21T01:46:00.954Z,13.40
2023-04-21T01:48:35.029Z,14.80
2023-04-21T01:51:09.032Z,12.10
2023-04-21T01:53:42.624Z,11.90
2023-04-21T01:56:19.261Z,15.40
2023-04-21T01:58:53.682Z,13.30
2023-04-21T02:01:27.510Z,12.70
2023-04-21T02:04:01.121Z,14.40
2023-04-21T02:06:36.204Z,13.90
2023-04-21T02:09:09.910Z,13.40
2023-04-21T02:11:43.786Z,13.20
2023-04-21T02:14:18.016Z,13.70
2023-04-21T02:16:51.758Z,13.50
2023-04-21T02:19:25.707Z,16.00
2023-04-21T02:22:01.445Z,14.70
2023-04-21T02:24:35.274Z,14.70
2023-04-21T02:27:09.121Z,11.70
2023-04-21T02:29:43.056Z,14.00
2023-04-21T02:32:25.560Z,13.70
2023-04-21T02:35:00.516Z,14.30
2023-04-21T02:37:34.592Z,14.80
2023-04-21T02:40:10.583Z,13.80
2023-04-21T02:42:44.850Z,12.60
2023-04-21T02:45:18.467Z,13.90
2023-04-21T02:47:52.199Z,11.00
2023-04-21T02:50:26.528Z,12.30
2023-04-21T02:53:00.277Z,12.40
2023-04-21T02:55:34.253Z,12.80
2023-04-21T02:58:09.704Z,12.50
2023-04-21T03:00:43.235Z,13.90
2023-04-21T03:03:18.842Z,14.20
2023-04-21T03:05:57.842Z,12.10
2023-04-21T03:08:31.646Z,12.70
2023-04-21T03:11:06.038Z,12.90
2023-04-21T03:13:39.871Z,13.40
2023-04-21T03:16:13.849Z,14.50
2023-04-21T03:18:51.437Z,14.40
2023-04-21T03:21:25.799Z,13.10
2023-04-21T03:23:59.410Z,24.80
2023-04-21T03:26:33.690Z,15.00
2023-04-21T03:29:07.288Z,18.90
2023-04-21T03:31:41.342Z,14.50
2023-04-21T03:34:15.237Z,14.00
2023-04-21T03:36:49.274Z,13.70
2023-04-21T03:39:23.445Z,12.60
2023-04-21T03:41:59.697Z,13.90
2023-04-21T03:44:35.484Z,12.90
2023-04-21T03:47:09.274Z,13.30
2023-04-21T03:49:42.742Z,14.40
2023-04-21T03:52:16.256Z,13.00
2023-04-21T03:54:49.750Z,13.70
2023-04-21T03:57:23.378Z,13.20
2023-04-21T03:59:57.308Z,14.90
2023-04-21T04:02:31.407Z,12.90
2023-04-21T04:05:05.634Z,13.30
2023-04-21T04:07:39.522Z,12.90
2023-04-21T04:10:13.528Z,14.00
2023-04-21T04:12:47.441Z,12.00
2023-04-21T04:15:21.303Z,11.80
2023-04-21T04:17:55.649Z,11.60
2023-04-21T04:20:29.835Z,13.60
2023-04-21T04:23:03.348Z,12.80
2023-04-21T04:25:37.682Z,11.80
2023-04-21T04:28:12.955Z,13.20
2023-04-21T04:30:56.897Z,13.50
2023-04-21T04:33:30.338Z,11.70
2023-04-21T04:36:04.110Z,11.20
2023-04-21T04:38:37.796Z,11.50
2023-04-21T04:41:13.263Z,10.70
2023-04-21T04:43:47.855Z,13.60
2023-04-21T04:46:21.957Z,11.40
2023-04-21T04:48:55.750Z,13.20
2023-04-21T04:51:29.698Z,12.60
2023-04-21T04:54:03.603Z,10.90
2023-04-21T04:56:37.873Z,11.00
2023-04-21T04:59:12.484Z,12.50
2023-04-21T05:01:46.625Z,13.60
2023-04-21T05:04:20.871Z,12.30
2023-04-21T05:06:54.999Z,11.80
2023-04-21T05:09:28.152Z,12.40
2023-04-21T05:12:02.905Z,13.90
2023-04-21T05:14:36.455Z,11.20
2023-04-21T05:17:10.878Z,11.20
2023-04-21T05:19:44.804Z,11.60
2023-04-21T05:22:18.619Z,11.20
2023-04-21T05:24:52.521Z,14.90
2023-04-21T05:27:29.449Z,12.00
2023-04-21T05:30:03.264Z,16.70
2023-04-21T05:32:37.767Z,15.80
2023-04-21T05:35:12.337Z,12.80
2023-04-21T05:37:46.275Z,13.30
2023-04-21T05:40:20.253Z,14.50
2023-04-21T05:42:53.652Z,16.00
2023-04-21T05:45:27.945Z,13.30
2023-04-21T05:48:01.662Z,12.80
2023-04-21T05:50:38.874Z,15.70
2023-04-21T05:53:12.518Z,12.30
2023-04-21T05:55:46.244Z,13.90
2023-04-21T05:58:19.846Z,13.60
2023-04-21T06:00:54.069Z,10.80
2023-04-21T06:03:27.847Z,12.50
2023-04-21T06:06:02.216Z,13.10
2023-04-21T06:08:36.299Z,11.50
2023-04-21T06:11:17.629Z,10.80
2023-04-21T06:13:51.193Z,10.60
2023-04-21T06:16:24.815Z,12.60
2023-04-21T06:18:59.300Z,9.60
2023-04-21T06:21:33.004Z,12.80
2023-04-21T06:24:07.121Z,16.10
2023-04-21T06:26:41.881Z,12.80
2023-04-21T06:29:15.967Z,13.50
2023-04-21T06:31:49.635Z,12.60
2023-04-21T06:34:23.608Z,12.00
2023-04-21T06:36:57.209Z,9.90
2023-04-21T06:39:31.076Z,11.60
2023-04-21T06:42:04.744Z,11.00
2023-04-21T06:44:45.384Z,10.50
2023-04-21T06:47:19.693Z,9.10
2023-04-21T06:49:53.916Z,10.00
2023-04-21T06:52:27.738Z,9.90
2023-04-21T06:55:01.185Z,9.80
2023-04-21T06:57:35.167Z,12.10
2023-04-21T07:00:10.900Z,12.90
2023-04-21T07:02:44.930Z,13.00
2023-04-21T07:05:19.383Z,8.40
2023-04-21T07:07:53.953Z,8.70
2023-04-21T07:10:48.687Z,8.20
2023-04-21T07:13:22.478Z,8.70
2023-04-21T07:15:56.335Z,9.20
2023-04-21T07:18:30.620Z,7.40
2023-04-21T07:21:04.319Z,8.60
2023-04-21T07:23:38.245Z,12.40
2023-04-21T07:26:12.244Z,6.60
2023-04-21T07:28:46.066Z,9.90
2023-04-21T07:31:23.689Z,7.90
2023-04-21T07:34:00.475Z,13.30
2023-04-21T07:36:34.383Z,7.20
2023-04-21T07:39:08.241Z,7.50
2023-04-21T07:41:41.824Z,6.30
2023-04-21T07:44:15.585Z,7.70
2023-04-21T07:46:49.213Z,8.20
2023-04-21T07:49:23.310Z,9.40
2023-04-21T07:51:57.423Z,7.40
2023-04-21T07:54:31.877Z,9.90
2023-04-21T07:57:05.520Z,8.40
2023-04-21T07:59:39.347Z,7.20
2023-04-21T08:02:13.283Z,7.60
2023-04-21T08:04:47.274Z,8.20
2023-04-21T08:07:22.101Z,9.10
2023-04-21T08:09:56.518Z,9.90
2023-04-21T08:12:30.531Z,10.30
2023-04-21T08:15:08.408Z,10.00
2023-04-21T08:17:42.910Z,7.00
2023-04-21T08:20:17.298Z,9.20
2023-04-21T08:22:51.209Z,8.40
2023-04-21T08:25:25.188Z,6.50
2023-04-21T08:27:59.038Z,7.10
2023-04-21T08:30:33.614Z,6.90
2023-04-21T08:33:08.803Z,7.20
2023-04-21T08:35:54.853Z,6.20
2023-04-21T08:38:35.818Z,8.00
2023-04-21T08:41:10.068Z,7.90
2023-04-21T08:43:44.329Z,6.70
2023-04-21T08:46:18.469Z,6.30
2023-04-21T08:48:53.753Z,8.10
2023-04-21T08:51:32.121Z,5.70
2023-04-21T08:54:09.740Z,6.20
2023-04-21T08:56:43.279Z,9.00
2023-04-21T08:59:17.163Z,7.90
2023-04-21T09:02:12.510Z,5.60
2023-04-21T09:04:47.724Z,5.50
2023-04-21T09:07:36.008Z,6.50
2023-04-21T09:10:11.402Z,5.40
2023-04-21T09:12:52.167Z,6.50
2023-04-21T09:15:26.114Z,8.70
2023-04-21T09:18:00.402Z,6.70
2023-04-21T09:20:34.460Z,12.00
2023-04-21T09:23:09.794Z,6.40
2023-04-21T09:25:44.830Z,5.70
2023-04-21T09:28:18.668Z,5.90
2023-04-21T09:31:25.831Z,9.50
2023-04-21T09:34:28.344Z,7.50
2023-04-21T09:37:39.718Z,9.00
2023-04-21T09:40:46.091Z,6.10
2023-04-21T09:43:43.890Z,12.00
2023-04-21T09:46:24.760Z,7.20
2023-04-21T09:49:02.209Z,8.30
2023-04-21T09:52:05.965Z,7.10
2023-04-21T09:54:34.331Z,6.20
2023-04-21T09:59:46.088Z,5.60
2023-04-21T10:02:21.668Z,7.90
2023-04-21T10:04:56.146Z,7.20
2023-04-21T10:07:30.102Z,5.70
2023-04-21T10:10:05.339Z,6.90
2023-04-21T10:12:40.524Z,5.50
2023-04-21T10:15:34.201Z,7.40
2023-04-21T10:18:24.115Z,5.00
2023-04-21T10:21:04.279Z,4.50
2023-04-21T10:23:41.703Z,4.90
2023-04-21T10:28:57.306Z,5.90
2023-04-21T10:31:39.703Z,4.10
2023-04-21T10:34:36.559Z,6.90
2023-04-21T10:37:20.568Z,5.80
2023-04-21T10:39:58.594Z,6.00
2023-04-21T10:42:38.659Z,5.20
2023-04-21T10:45:16.821Z,6.40
2023-04-21T10:47:52.399Z,6.20
2023-04-21T10:50:31.576Z,6.60
2023-04-21T10:53:12.115Z,4.20
2023-04-21T10:55:50.757Z,8.10
2023-04-21T10:58:27.092Z,6.60
2023-04-21T11:01:03.677Z,8.40
2023-04-21T11:03:39.928Z,5.90
2023-04-21T11:06:20.352Z,7.40
2023-04-21T11:09:00.460Z,9.40
2023-04-21T11:11:35.255Z,9.10
2023-04-21T11:14:12.266Z,6.40
2023-04-21T11:16:47.698Z,6.10
2023-04-21T11:19:24.772Z,5.30
2023-04-21T11:21:59.018Z,4.20
2023-04-21T11:24:33.023Z,6.30
2023-04-21T11:29:50.384Z,5.30
2023-04-21T11:32:24.961Z,5.10
2023-04-21T11:34:58.912Z,10.00
2023-04-21T11:37:33.119Z,5.90
2023-04-21T11:40:08.850Z,6.60
2023-04-21T11:42:42.518Z,4.50
2023-04-21T11:45:22.627Z,13.30
2023-04-21T11:48:16.738Z,6.20
2023-04-21T11:50:53.991Z,5.50
2023-04-21T11:56:02.777Z,6.50
2023-04-21T11:58:36.718Z,5.90
2023-04-21T12:01:13.656Z,5.80
2023-04-21T12:03:54.718Z,5.90
2023-04-21T12:06:31.783Z,5.30
2023-04-21T12:09:08.746Z,7.90
2023-04-21T12:11:42.498Z,5.00
2023-04-21T12:14:16.467Z,8.10
2023-04-21T12:16:54.079Z,4.90
2023-04-21T12:19:38.352Z,6.30
2023-04-21T12:22:16.902Z,7.20
2023-04-21T12:24:52.373Z,5.30
2023-04-21T12:27:28.514Z,4.70
2023-04-21T12:30:07.046Z,6.90
2023-04-21T12:32:41.903Z,4.60
2023-04-21T12:35:16.091Z,4.80
2023-04-21T12:37:49.815Z,5.60
2023-04-21T12:40:23.543Z,6.90
2023-04-21T12:42:57.653Z,4.80
2023-04-21T12:45:32.197Z,5.00
2023-04-21T12:48:07.461Z,6.60
2023-04-21T12:50:41.545Z,4.90
2023-04-21T12:53:15.402Z,8.20
2023-04-21T12:56:01.009Z,5.10
2023-04-21T12:58:38.246Z,6.30
2023-04-21T13:01:12.532Z,4.00
2023-04-21T13:03:46.466Z,7.80
2023-04-21T13:06:20.775Z,7.40
2023-04-21T13:08:54.435Z,5.80
2023-04-21T13:11:28.040Z,6.50
2023-04-21T13:14:04.399Z,6.50
2023-04-21T13:16:38.430Z,6.60
2023-04-21T13:19:15.211Z,4.80
2023-04-21T13:21:50.137Z,5.30
2023-04-21T13:24:26.336Z,14.60
2023-04-21T13:26:59.921Z,5.90
2023-04-21T13:29:35.159Z,4.80
2023-04-21T13:32:10.174Z,4.20
2023-04-21T13:34:43.979Z,5.20
2023-04-21T13:37:17.697Z,6.40
2023-04-21T13:39:51.199Z,4.20
2023-04-21T13:42:24.648Z,6.30
2023-04-21T13:44:59.695Z,7.40
2023-04-21T13:47:34.273Z,6.10
2023-04-21T13:50:10.390Z,6.10
2023-04-21T13:52:44.816Z,6.40
2023-04-21T13:55:19.045Z,6.40
2023-04-21T13:57:53.566Z,7.40
2023-04-21T14:00:28.466Z,5.90
2023-04-21T14:03:02.646Z,6.40
2023-04-21T14:05:37.125Z,7.30
2023-04-21T14:08:10.934Z,5.60
2023-04-21T14:10:45.248Z,7.90
2023-04-21T14:13:34.011Z,5.60
2023-04-21T14:16:12.530Z,6.80
2023-04-21T14:18:47.654Z,5.20
2023-04-21T14:21:24.193Z,8.10
2023-04-21T14:23:58.024Z,7.10
2023-04-21T14:26:31.936Z,6.90
2023-04-21T14:29:06.156Z,6.60
2023-04-21T14:31:40.085Z,5.80
2023-04-21T14:34:13.654Z,8.70
2023-04-21T14:36:50.463Z,11.20
2023-04-21T14:39:24.374Z,7.10
2023-04-21T14:41:58.825Z,9.10
2023-04-21T14:44:32.729Z,7.30
2023-04-21T14:47:10.312Z,6.70
2023-04-21T14:49:45.182Z,6.90
2023-04-21T14:52:19.431Z,4.70
2023-04-21T14:54:53.342Z,7.80
2023-04-21T14:57:27.414Z,9.20
2023-04-21T15:00:01.275Z,9.80
2023-04-21T15:02:35.205Z,5.30
2023-04-21T15:05:11.138Z,11.10
2023-04-21T15:07:44.820Z,9.00
2023-04-21T15:10:18.959Z,6.60
2023-04-21T15:12:53.053Z,6.20
2023-04-21T15:15:27.252Z,7.30
2023-04-21T15:18:01.184Z,7.00
2023-04-21T15:20:44.367Z,5.00
2023-04-21T15:23:19.724Z,7.00
2023-04-21T15:25:53.933Z,6.80
2023-04-21T15:28:27.434Z,5.40
2023-04-21T15:31:01.891Z,5.70
2023-04-21T15:33:35.850Z,5.60
2023-04-21T15:36:09.985Z,5.60
2023-04-21T15:38:45.215Z,7.40
2023-04-21T15:41:19.125Z,7.20
2023-04-21T15:43:53.419Z,5.00
2023-04-21T15:46:27.488Z,6.50
2023-04-21T15:49:01.617Z,6.70
2023-04-21T15:51:35.801Z,8.90
2023-04-21T15:54:10.922Z,9.30
2023-04-21T15:56:44.366Z,5.40
2023-04-21T15:59:18.385Z,6.60
2023-04-21T16:01:52.017Z,9.20
2023-04-21T16:04:26.672Z,14.00
2023-04-21T16:07:01.874Z,8.20
2023-04-21T16:09:35.445Z,6.10
2023-04-21T16:12:10.819Z,8.20
2023-04-21T16:14:57.172Z,8.90
2023-04-21T16:17:34.057Z,8.70
2023-04-21T16:20:09.822Z,9.40
2023-04-21T16:22:44.653Z,6.30
2023-04-21T16:25:19.886Z,7.10
2023-04-21T16:27:55.110Z,7.20
2023-04-21T16:30:29.512Z,7.50
2023-04-21T16:33:04.375Z,7.20
2023-04-21T16:35:38.728Z,7.80
2023-04-21T16:38:13.215Z,7.10
2023-04-21T16:40:47.610Z,10.10
2023-04-21T16:43:21.332Z,6.20
2023-04-21T16:45:55.330Z,5.70
2023-04-21T16:48:30.101Z,7.20
2023-04-21T16:51:26.569Z,6.20
2023-04-21T16:54:00.627Z,7.00
2023-04-21T16:56:35.886Z,9.90
2023-04-21T16:59:11.201Z,8.70
2023-04-21T17:01:45.268Z,7.80
2023-04-21T17:04:19.479Z,8.80
2023-04-21T17:06:53.383Z,6.20
2023-04-21T17:09:27.596Z,7.90
2023-04-21T17:12:01.595Z,6.80
2023-04-21T17:14:35.357Z,5.70
2023-04-21T17:17:09.537Z,5.60
2023-04-21T17:19:43.343Z,9.00
2023-04-21T17:22:17.150Z,10.50
2023-04-21T17:24:53.733Z,8.10
2023-04-21T17:27:29.066Z,7.30
2023-04-21T17:30:03.100Z,8.80
2023-04-21T17:32:37.816Z,7.40
2023-04-21T17:35:12.501Z,6.80
2023-04-21T17:37:46.552Z,11.30
2023-04-21T17:40:20.780Z,12.60
2023-04-21T17:42:54.673Z,15.90
2023-04-21T17:45:28.980Z,17.40
2023-04-21T17:48:03.053Z,14.00
2023-04-21T17:50:37.206Z,11.90
2023-04-21T17:53:11.117Z,12.50
2023-04-21T17:55:45.256Z,10.20
2023-04-21T17:58:19.537Z,12.40
2023-04-21T18:00:53.942Z,11.70
2023-04-21T18:03:28.682Z,11.00
2023-04-21T18:06:03.616Z,14.80
2023-04-21T18:08:38.277Z,12.40
2023-04-21T18:11:12.862Z,13.10
2023-04-21T18:13:46.687Z,11.40
2023-04-21T18:16:20.728Z,13.60
2023-04-21T18:18:54.872Z,10.10
2023-04-21T18:21:29.370Z,11.80
2023-04-21T18:24:03.230Z,13.20
2023-04-21T18:26:36.769Z,14.60
2023-04-21T18:29:12.054Z,14.80
2023-04-21T18:31:46.563Z,11.00
2023-04-21T18:34:21.589Z,14.60
2023-04-21T18:39:31.619Z,14.40
2023-04-21T18:42:07.275Z,15.60
2023-04-21T18:44:41.615Z,13.70
2023-04-21T18:47:16.162Z,16.10
2023-04-21T18:49:55.336Z,15.40
2023-04-21T18:52:29.695Z,18.20
2023-04-21T18:55:04.441Z,16.40
2023-04-21T18:57:40.063Z,17.10
2023-04-21T19:00:17.339Z,19.90
2023-04-21T19:02:51.759Z,21.80
2023-04-21T19:05:29.603Z,21.90
2023-04-21T19:08:09.295Z,15.40
2023-04-21T19:10:44.246Z,15.90
2023-04-21T19:13:19.068Z,16.30
2023-04-21T19:15:54.109Z,16.20
2023-04-21T19:18:31.332Z,14.10
2023-04-21T19:21:06.589Z,14.60
2023-04-21T19:23:43.047Z,20.20
2023-04-21T19:26:19.833Z,15.60
2023-04-21T19:28:55.983Z,15.90
2023-04-21T19:31:31.120Z,14.10
2023-04-21T19:34:21.873Z,16.30
2023-04-21T19:37:02.819Z,14.70
2023-04-21T19:39:38.346Z,14.70
2023-04-21T19:42:14.727Z,15.30
2023-04-21T19:44:51.831Z,16.10
2023-04-21T19:47:26.540Z,11.90
2023-04-21T19:50:02.565Z,18.80
2023-04-21T19:52:37.086Z,17.20
2023-04-21T19:55:13.698Z,15.80
2023-04-21T19:57:53.127Z,21.60
2023-04-21T20:00:29.388Z,23.30
2023-04-21T20:03:05.830Z,21.40
2023-04-21T20:05:43.245Z,17.50
2023-04-21T20:08:17.807Z,17.20
2023-04-21T20:10:52.306Z,18.50
2023-04-21T20:13:27.724Z,18.30
2023-04-21T20:16:03.663Z,13.70
2023-04-21T20:18:40.436Z,18.40
2023-04-21T20:21:14.357Z,18.50
2023-04-21T20:23:52.019Z,17.30
2023-04-21T20:26:26.549Z,16.80
2023-04-21T20:29:02.025Z,17.10
2023-04-21T20:31:36.944Z,16.20
2023-04-21T20:34:11.128Z,16.80
2023-04-21T20:36:46.688Z,17.40
2023-04-21T20:39:20.957Z,16.80
2023-04-21T20:42:08.888Z,18.20
2023-04-21T20:44:46.466Z,15.00
2023-04-21T20:47:20.510Z,19.10
2023-04-21T20:49:55.103Z,18.00
2023-04-21T20:52:29.528Z,18.70
2023-04-21T20:55:03.672Z,19.30
2023-04-21T20:57:38.075Z,22.00
2023-04-21T21:00:14.028Z,18.00
2023-04-21T21:02:50.631Z,21.10
2023-04-21T21:05:24.622Z,18.10
2023-04-21T21:07:59.501Z,18.50
2023-04-21T21:10:33.430Z,19.20
2023-04-21T21:13:07.776Z,18.00
2023-04-21T21:15:41.920Z,16.00
2023-04-21T21:18:15.600Z,23.90
2023-04-21T21:20:49.165Z,20.60
2023-04-21T21:23:23.212Z,16.80
2023-04-21T21:25:58.993Z,15.10
2023-04-21T21:28:33.065Z,14.60
2023-04-21T21:31:08.398Z,12.40
2023-04-21T21:33:42.306Z,14.70
2023-04-21T21:36:16.100Z,16.80
2023-04-21T21:38:49.887Z,16.90
2023-04-21T21:41:23.688Z,14.20
2023-04-21T21:43:57.294Z,15.30
2023-04-21T21:46:31.679Z,13.80
2023-04-21T21:49:05.663Z,15.60
2023-04-21T21:51:39.303Z,14.20
2023-04-21T21:54:12.693Z,13.10
2023-04-21T21:56:46.565Z,17.10
2023-04-21T21:59:20.292Z,18.30
2023-04-21T22:01:54.214Z,14.80
2023-04-21T22:04:28.474Z,15.10
2023-04-21T22:07:02.394Z,16.00
2023-04-21T22:09:37.675Z,18.60
2023-04-21T22:12:11.537Z,15.10
2023-04-21T22:14:46.921Z,15.20
2023-04-21T22:17:21.671Z,18.70
2023-04-21T22:19:56.407Z,19.10
2023-04-21T22:22:30.259Z,17.50
2023-04-21T22:25:04.380Z,15.00
2023-04-21T22:27:43.027Z,15.90
2023-04-21T22:30:17.323Z,14.40
2023-04-21T22:32:51.168Z,15.20
2023-04-21T22:35:25.260Z,17.30
2023-04-21T22:37:58.901Z,16.40
2023-04-21T22:40:32.649Z,14.90
2023-04-21T22:43:06.419Z,19.20
2023-04-21T22:45:40.709Z,15.80
2023-04-21T22:48:22.170Z,15.00
2023-04-21T22:50:57.753Z,20.20
2023-04-21T22:53:31.642Z,16.50
2023-04-21T22:56:06.179Z,15.60
2023-04-21T22:58:42.521Z,13.70
2023-04-21T23:01:20.630Z,16.40
2023-04-21T23:03:54.242Z,17.50
2023-04-21T23:06:28.739Z,18.60
2023-04-21T23:09:02.707Z,18.70
2023-04-21T23:11:36.802Z,15.20
2023-04-21T23:14:10.620Z,16.60
2023-04-21T23:16:44.317Z,20.50
2023-04-21T23:19:17.968Z,17.40
2023-04-21T23:21:51.611Z,17.90
2023-04-21T23:24:25.543Z,19.10
2023-04-21T23:26:59.421Z,15.10
2023-04-21T23:29:33.646Z,16.40
2023-04-21T23:32:07.565Z,17.00
2023-04-21T23:34:41.458Z,15.90
2023-04-21T23:37:15.148Z,16.50
2023-04-21T23:39:48.867Z,14.70
2023-04-21T23:42:22.656Z,13.40
2023-04-21T23:44:56.497Z,14.20
2023-04-21T23:47:30.108Z,15.30
2023-04-21T23:50:04.009Z,15.40
2023-04-21T23:52:38.167Z,16.90
2023-04-21T23:55:13.533Z,16.80
2023-04-21T23:57:47.702Z,13.60
